createdAt,value
2023-05-04T00:00:03.575Z,70.36
2023-05-04T00:01:03.301Z,70.66
2023-05-04T00:02:03.357Z,70.82
2023-05-04T00:03:03.444Z,70.89
2023-05-04T00:04:03.511Z,70.74
2023-05-04T00:05:03.391Z,70.48
2023-05-04T00:06:03.362Z,70.42
2023-05-04T00:07:03.377Z,70.37
2023-05-04T00:08:03.404Z,70.46
2023-05-04T00:09:03.381Z,70.31
2023-05-04T00:10:03.742Z,70.27
2023-05-04T00:11:03.411Z,70.11
2023-05-04T00:12:03.440Z,70.09
2023-05-04T00:13:03.538Z,70.32
2023-05-04T00:14:03.491Z,70.47
2023-05-04T00:15:03.474Z,70.44
2023-05-04T00:16:03.554Z,70.47
2023-05-04T00:17:03.505Z,70.24
2023-05-04T00:18:03.586Z,70.32
2023-05-04T00:19:03.620Z,70.22
2023-05-04T00:20:03.877Z,70.13
2023-05-04T00:21:03.824Z,70.03
2023-05-04T00:22:03.847Z,69.84
2023-05-04T00:23:03.928Z,69.73
2023-05-04T00:24:04.014Z,69.67
2023-05-04T00:25:04.083Z,69.64
2023-05-04T00:26:04.242Z,69.81
2023-05-04T00:27:04.261Z,69.84
2023-05-04T00:28:04.314Z,70.00
2023-05-04T00:29:04.395Z,69.93
2023-05-04T00:30:04.721Z,69.90
2023-05-04T00:31:04.543Z,69.91
2023-05-04T00:32:04.769Z,70.06
2023-05-04T00:33:04.749Z,70.24
2023-05-04T00:34:04.777Z,70.24
2023-05-04T00:35:04.875Z,70.18
2023-05-04T00:36:04.933Z,70.18
2023-05-04T00:37:05.021Z,70.30
2023-05-04T00:38:05.065Z,70.22
2023-05-04T00:39:05.102Z,70.25
2023-05-04T00:40:05.419Z,70.20
2023-05-04T00:41:05.125Z,69.89
2023-05-04T00:42:05.157Z,69.65
2023-05-04T00:43:05.175Z,69.57
2023-05-04T00:44:05.196Z,69.55
2023-05-04T00:45:05.205Z,69.68
2023-05-04T00:46:05.457Z,69.69
2023-05-04T00:47:05.336Z,69.59
2023-05-04T00:48:05.377Z,69.88
2023-05-04T00:49:05.350Z,69.80
2023-05-04T00:50:05.619Z,70.04
2023-05-04T00:51:05.440Z,70.34
2023-05-04T00:52:05.491Z,70.38
2023-05-04T00:53:05.481Z,70.38
2023-05-04T00:54:05.520Z,70.38
2023-05-04T00:55:05.551Z,70.60
2023-05-04T00:56:05.590Z,70.66
2023-05-04T00:57:05.671Z,70.80
2023-05-04T00:58:05.657Z,70.79
2023-05-04T00:59:05.723Z,70.88
2023-05-04T01:00:06.056Z,70.79
2023-05-04T01:01:05.814Z,70.54
2023-05-04T01:02:05.886Z,70.56
2023-05-04T01:03:05.887Z,70.68
2023-05-04T01:04:06.043Z,70.84
2023-05-04T01:05:05.921Z,71.03
2023-05-04T01:06:05.965Z,70.95
2023-05-04T01:07:06.013Z,70.78
2023-05-04T01:08:06.034Z,70.81
2023-05-04T01:09:06.067Z,70.79
2023-05-04T01:10:06.346Z,70.83
2023-05-04T01:11:06.172Z,70.89
2023-05-04T01:12:06.185Z,70.80
2023-05-04T01:13:06.245Z,70.79
2023-05-04T01:14:06.207Z,71.00
2023-05-04T01:15:06.244Z,71.00
2023-05-04T01:16:06.282Z,71.06
2023-05-04T01:17:06.457Z,71.09
2023-05-04T01:18:06.446Z,70.95
2023-05-04T01:19:06.394Z,70.72
2023-05-04T01:20:06.741Z,70.67
2023-05-04T01:21:06.441Z,70.63
2023-05-04T01:22:06.481Z,70.41
2023-05-04T01:23:06.510Z,70.21
2023-05-04T01:24:06.556Z,70.15
2023-05-04T01:25:06.613Z,70.16
2023-05-04T01:26:06.620Z,70.12
2023-05-04T01:27:06.722Z,70.07
2023-05-04T01:28:06.684Z,69.85
2023-05-04T01:29:06.720Z,69.77
2023-05-04T01:30:06.985Z,69.83
2023-05-04T01:31:06.863Z,70.36
2023-05-04T01:32:06.816Z,70.42
2023-05-04T01:33:06.923Z,70.50
2023-05-04T01:34:06.987Z,70.20
2023-05-04T01:35:06.908Z,70.16
2023-05-04T01:36:06.952Z,69.81
2023-05-04T01:37:06.998Z,69.48
2023-05-04T01:38:07.080Z,69.41
2023-05-04T01:39:07.067Z,69.63
2023-05-04T01:40:07.171Z,69.74
2023-05-04T01:41:07.185Z,69.15
2023-05-04T01:42:07.239Z,69.46
2023-05-04T01:43:07.461Z,69.94
2023-05-04T01:44:07.338Z,70.07
2023-05-04T01:45:07.379Z,70.06
2023-05-04T01:46:07.431Z,69.89
2023-05-04T01:47:07.461Z,69.93
2023-05-04T01:48:07.681Z,69.89
2023-05-04T01:49:07.587Z,70.16
2023-05-04T01:50:07.637Z,70.36
2023-05-04T01:51:07.679Z,70.61
2023-05-04T01:52:07.740Z,70.63
2023-05-04T01:53:07.765Z,70.62
2023-05-04T01:54:07.808Z,70.70
2023-05-04T01:55:07.862Z,70.83
2023-05-04T01:56:07.975Z,70.97
2023-05-04T01:57:07.971Z,71.03
2023-05-04T01:58:08.007Z,71.04
2023-05-04T01:59:08.042Z,70.97
2023-05-04T02:01:14.697Z,70.79
2023-05-04T02:02:15.713Z,70.09
2023-05-04T02:03:15.742Z,70.19
2023-05-04T02:04:15.651Z,70.23
2023-05-04T02:05:15.667Z,70.24
2023-05-04T02:06:15.683Z,70.33
2023-05-04T02:07:15.665Z,70.26
2023-05-04T02:08:15.664Z,70.35
2023-05-04T02:09:15.646Z,70.28
2023-05-04T02:10:15.626Z,70.33
2023-05-04T02:11:15.613Z,70.69
2023-05-04T02:12:15.654Z,70.80
2023-05-04T02:13:15.730Z,70.74
2023-05-04T02:14:15.636Z,70.52
2023-05-04T02:15:15.638Z,70.55
2023-05-04T02:16:15.756Z,70.49
2023-05-04T02:17:15.654Z,70.47
2023-05-04T02:18:15.651Z,70.58
2023-05-04T02:19:15.654Z,70.51
2023-05-04T02:20:15.660Z,70.37
2023-05-04T02:21:15.817Z,70.57
2023-05-04T02:22:15.705Z,70.53
2023-05-04T02:23:15.676Z,70.53
2023-05-04T02:24:15.676Z,70.47
2023-05-04T02:25:15.689Z,70.59
2023-05-04T02:26:15.688Z,70.48
2023-05-04T02:27:15.773Z,70.61
2023-05-04T02:28:15.695Z,70.78
2023-05-04T02:29:15.698Z,70.92
2023-05-04T02:30:15.730Z,71.01
2023-05-04T02:31:15.817Z,70.97
2023-05-04T02:32:15.844Z,71.07
2023-05-04T02:33:15.894Z,70.94
2023-05-04T02:34:15.950Z,70.86
2023-05-04T02:35:16.009Z,70.97
2023-05-04T02:36:16.062Z,70.73
2023-05-04T02:37:16.266Z,70.77
2023-05-04T02:38:16.193Z,70.96
2023-05-04T02:39:16.265Z,71.02
2023-05-04T02:40:16.304Z,71.11
2023-05-04T02:41:16.363Z,71.20
2023-05-04T02:42:16.446Z,71.00
2023-05-04T02:43:16.475Z,70.75
2023-05-04T02:44:16.582Z,70.65
2023-05-04T02:45:17.776Z,70.75
2023-05-04T02:46:16.787Z,71.00
2023-05-04T02:47:16.744Z,71.24
2023-05-04T02:48:16.806Z,71.35
2023-05-04T02:49:16.926Z,71.45
2023-05-04T02:50:16.931Z,71.46
2023-05-04T02:51:16.984Z,71.66
2023-05-04T02:52:17.068Z,71.95
2023-05-04T02:53:17.133Z,72.13
2023-05-04T02:54:17.146Z,72.25
2023-05-04T02:55:17.196Z,72.36
2023-05-04T02:56:17.262Z,72.18
2023-05-04T02:57:17.353Z,71.96
2023-05-04T02:58:17.387Z,71.78
2023-05-04T02:59:17.451Z,71.67
2023-05-04T03:00:17.520Z,71.47
2023-05-04T03:01:17.666Z,71.34
2023-05-04T03:02:17.691Z,71.28
2023-05-04T03:03:17.721Z,71.25
2023-05-04T03:04:17.842Z,71.19
2023-05-04T03:05:17.873Z,71.16
2023-05-04T03:06:17.931Z,71.60
2023-05-04T03:07:18.203Z,71.84
2023-05-04T03:08:18.917Z,72.50
2023-05-04T03:09:18.208Z,72.20
2023-05-04T03:10:18.226Z,71.73
2023-05-04T03:11:18.314Z,72.09
2023-05-04T03:12:18.387Z,72.32
2023-05-04T03:13:18.517Z,72.27
2023-05-04T03:14:18.552Z,72.12
2023-05-04T03:15:18.668Z,71.89
2023-05-04T03:16:18.762Z,71.95
2023-05-04T03:17:18.791Z,71.89
2023-05-04T03:18:18.891Z,71.88
2023-05-04T03:19:19.024Z,71.73
2023-05-04T03:20:19.023Z,71.64
2023-05-04T03:21:19.128Z,71.67
2023-05-04T03:22:19.196Z,71.53
2023-05-04T03:23:19.271Z,71.45
2023-05-04T03:24:19.365Z,71.47
2023-05-04T03:25:19.438Z,71.40
2023-05-04T03:26:19.466Z,71.31
2023-05-04T03:27:19.506Z,71.19
2023-05-04T03:28:19.580Z,71.30
2023-05-04T03:29:19.670Z,71.19
2023-05-04T03:30:19.658Z,71.31
2023-05-04T03:31:19.783Z,71.46
2023-05-04T03:32:19.731Z,71.65
2023-05-04T03:33:19.775Z,71.66
2023-05-04T03:34:19.840Z,71.81
2023-05-04T03:35:24.697Z,71.73
2023-05-04T03:36:19.924Z,71.85
2023-05-04T03:37:19.934Z,71.70
2023-05-04T03:38:19.958Z,71.48
2023-05-04T03:39:19.976Z,71.42
2023-05-04T03:40:20.002Z,71.51
2023-05-04T03:41:20.139Z,71.64
2023-05-04T03:42:20.039Z,71.56
2023-05-04T03:43:20.106Z,71.53
2023-05-04T03:44:20.096Z,71.50
2023-05-04T03:45:20.092Z,71.37
2023-05-04T03:46:20.173Z,71.24
2023-05-04T03:47:20.132Z,71.20
2023-05-04T03:48:20.158Z,71.28
2023-05-04T03:49:20.166Z,71.55
2023-05-04T03:50:20.184Z,71.61
2023-05-04T03:51:20.205Z,71.56
2023-05-04T03:52:20.211Z,71.57
2023-05-04T03:53:20.233Z,71.60
2023-05-04T03:54:20.243Z,71.63
2023-05-04T03:55:20.270Z,71.97
2023-05-04T03:56:20.275Z,72.22
2023-05-04T03:57:20.359Z,72.74
2023-05-04T03:58:20.302Z,72.89
2023-05-04T03:59:20.335Z,73.31
2023-05-04T04:00:20.319Z,73.52
2023-05-04T04:01:20.342Z,73.55
2023-05-04T04:02:20.400Z,73.32
2023-05-04T04:03:20.461Z,72.82
2023-05-04T04:04:20.384Z,72.65
2023-05-04T04:05:20.389Z,72.56
2023-05-04T04:06:20.415Z,72.48
2023-05-04T04:07:20.427Z,72.44
2023-05-04T04:08:20.471Z,72.52
2023-05-04T04:09:20.475Z,72.58
2023-05-04T04:10:20.517Z,72.65
2023-05-04T04:11:20.518Z,72.70
2023-05-04T04:12:20.556Z,72.60
2023-05-04T04:13:20.687Z,72.61
2023-05-04T04:14:20.584Z,72.79
2023-05-04T04:15:20.604Z,72.76
2023-05-04T04:16:20.692Z,72.48
2023-05-04T04:17:20.630Z,72.13
2023-05-04T04:18:20.637Z,71.79
2023-05-04T04:19:20.642Z,71.80
2023-05-04T04:20:20.661Z,71.96
2023-05-04T04:21:20.708Z,72.05
2023-05-04T04:22:20.723Z,72.12
2023-05-04T04:23:20.718Z,72.08
2023-05-04T04:24:20.737Z,72.03
2023-05-04T04:25:20.753Z,71.82
2023-05-04T04:26:20.772Z,71.85
2023-05-04T04:27:20.787Z,71.91
2023-05-04T04:28:20.815Z,71.90
2023-05-04T04:29:20.841Z,71.82
2023-05-04T04:30:20.831Z,71.63
2023-05-04T04:31:20.892Z,71.67
2023-05-04T04:32:20.852Z,71.70
2023-05-04T04:33:20.873Z,71.59
2023-05-04T04:34:20.897Z,71.62
2023-05-04T04:35:20.895Z,71.67
2023-05-04T04:36:20.894Z,71.66
2023-05-04T04:37:20.896Z,71.73
2023-05-04T04:38:20.905Z,71.66
2023-05-04T04:39:20.941Z,71.63
2023-05-04T04:40:20.930Z,71.56
2023-05-04T04:41:20.985Z,71.54
2023-05-04T04:42:21.068Z,71.40
2023-05-04T04:43:21.124Z,71.48
2023-05-04T04:44:21.176Z,71.59
2023-05-04T04:45:21.241Z,71.55
2023-05-04T04:46:21.373Z,71.61
2023-05-04T04:47:21.339Z,71.54
2023-05-04T04:48:21.379Z,71.76
2023-05-04T04:49:21.414Z,71.84
2023-05-04T04:50:21.498Z,71.57
2023-05-04T04:51:21.552Z,71.34
2023-05-04T04:52:21.619Z,71.10
2023-05-04T04:53:21.679Z,70.97
2023-05-04T04:54:21.748Z,70.79
2023-05-04T04:55:21.843Z,70.83
2023-05-04T04:56:21.856Z,70.56
2023-05-04T04:57:21.940Z,70.53
2023-05-04T04:58:22.139Z,70.46
2023-05-04T04:59:22.025Z,70.39
2023-05-04T05:00:22.083Z,70.37
2023-05-04T05:01:22.269Z,70.28
2023-05-04T05:02:22.203Z,70.28
2023-05-04T05:03:22.264Z,70.12
2023-05-04T05:04:22.384Z,70.32
2023-05-04T05:05:22.364Z,69.99
2023-05-04T05:06:22.402Z,70.24
2023-05-04T05:07:22.445Z,69.99
2023-05-04T05:08:22.480Z,69.95
2023-05-04T05:09:22.509Z,69.90
2023-05-04T05:10:22.520Z,69.83
2023-05-04T05:11:22.562Z,69.81
2023-05-04T05:12:22.567Z,69.82
2023-05-04T05:13:22.563Z,69.66
2023-05-04T05:14:22.572Z,69.60
2023-05-04T05:15:22.575Z,69.53
2023-05-04T05:16:22.593Z,69.41
2023-05-04T05:17:22.718Z,69.40
2023-05-04T05:18:22.575Z,69.41
2023-05-04T05:19:22.583Z,69.25
2023-05-04T05:20:22.583Z,69.14
2023-05-04T05:21:22.585Z,69.11
2023-05-04T05:22:23.466Z,68.95
2023-05-04T05:23:22.686Z,68.88
2023-05-04T05:24:22.751Z,68.68
2023-05-04T05:25:23.043Z,68.65
2023-05-04T05:26:22.867Z,68.62
2023-05-04T05:27:22.914Z,68.72
2023-05-04T05:28:23.058Z,68.71
2023-05-04T05:29:22.948Z,68.41
2023-05-04T05:30:22.948Z,68.21
2023-05-04T05:31:23.069Z,68.23
2023-05-04T05:32:23.009Z,68.17
2023-05-04T05:33:23.034Z,67.84
2023-05-04T05:34:23.024Z,67.63
2023-05-04T05:35:23.052Z,67.66
2023-05-04T05:36:23.067Z,67.46
2023-05-04T05:37:23.549Z,67.54
2023-05-04T05:38:23.191Z,67.37
2023-05-04T05:39:23.233Z,67.61
2023-05-04T05:40:23.246Z,67.64
2023-05-04T05:41:23.245Z,67.54
2023-05-04T05:42:23.251Z,67.46
2023-05-04T05:43:23.564Z,67.57
2023-05-04T05:44:23.272Z,67.56
2023-05-04T05:45:23.331Z,67.55
2023-05-04T05:46:39.079Z,67.62
2023-05-04T05:47:23.381Z,67.66
2023-05-04T05:48:23.573Z,67.56
2023-05-04T05:49:23.389Z,67.48
2023-05-04T05:50:26.505Z,67.50
2023-05-04T05:51:38.912Z,67.29
2023-05-04T05:52:23.529Z,66.99
2023-05-04T05:53:23.553Z,66.93
2023-05-04T05:54:55.611Z,66.90
2023-05-04T05:55:23.668Z,66.76
2023-05-04T05:56:23.540Z,66.73
2023-05-04T05:57:26.467Z,66.53
2023-05-04T05:58:23.242Z,66.28
2023-05-04T05:59:23.218Z,66.45
2023-05-04T06:00:23.217Z,66.47
2023-05-04T06:01:26.753Z,66.25
2023-05-04T06:02:26.838Z,66.18
2023-05-04T06:03:30.717Z,65.95
2023-05-04T06:06:39.829Z,65.38
2023-05-04T06:07:26.293Z,65.27
2023-05-04T06:08:30.455Z,65.38
2023-05-04T06:09:23.562Z,65.50
2023-05-04T06:10:23.011Z,65.61
2023-05-04T06:11:22.981Z,65.53
2023-05-04T06:12:26.254Z,65.17
2023-05-04T06:13:22.916Z,65.39
2023-05-04T06:14:23.272Z,65.21
2023-05-04T06:15:23.161Z,65.51
2023-05-04T06:16:22.894Z,65.38
2023-05-04T06:17:23.081Z,65.39
2023-05-04T06:18:22.778Z,65.37
2023-05-04T06:19:22.709Z,65.36
2023-05-04T06:20:23.681Z,65.66
2023-05-04T06:21:22.666Z,65.98
2023-05-04T06:22:23.901Z,66.08
2023-05-04T06:23:23.028Z,66.15
2023-05-04T06:24:25.773Z,65.87
2023-05-04T06:25:22.509Z,65.44
2023-05-04T06:26:22.453Z,65.09
2023-05-04T06:27:24.174Z,64.96
2023-05-04T06:28:22.375Z,64.67
2023-05-04T06:29:22.328Z,64.81
2023-05-04T06:30:22.378Z,64.41
2023-05-04T06:31:22.304Z,63.97
2023-05-04T06:32:22.753Z,63.46
2023-05-04T06:33:22.204Z,63.35
2023-05-04T06:34:22.126Z,62.66
2023-05-04T06:35:22.100Z,62.91
2023-05-04T06:36:22.054Z,63.30
2023-05-04T06:37:22.051Z,62.94
2023-05-04T06:38:22.054Z,62.92
2023-05-04T06:39:21.908Z,62.47
2023-05-04T06:40:21.883Z,62.32
2023-05-04T06:41:22.028Z,62.07
2023-05-04T06:42:21.778Z,61.80
2023-05-04T06:43:21.715Z,61.79
2023-05-04T06:44:21.675Z,61.75
2023-05-04T06:45:29.074Z,61.44
2023-05-04T06:46:22.055Z,61.55
2023-05-04T06:47:21.518Z,61.84
2023-05-04T06:49:21.416Z,61.87
2023-05-04T06:50:21.636Z,61.77
2023-05-04T06:51:21.551Z,61.63
2023-05-04T06:52:21.225Z,61.69
2023-05-04T06:53:21.431Z,61.64
2023-05-04T06:54:21.232Z,61.41
2023-05-04T06:55:21.050Z,61.14
2023-05-04T06:56:23.890Z,60.86
2023-05-04T06:57:20.926Z,60.49
2023-05-04T06:58:20.875Z,59.61
2023-05-04T06:59:20.818Z,59.45
2023-05-04T07:00:20.764Z,58.51
2023-05-04T07:01:21.890Z,58.06
2023-05-04T07:02:20.827Z,58.21
2023-05-04T07:03:20.655Z,58.52
2023-05-04T07:04:20.551Z,58.41
2023-05-04T07:05:20.509Z,57.98
2023-05-04T07:06:20.444Z,57.57
2023-05-04T07:07:20.539Z,56.68
2023-05-04T07:08:20.365Z,56.69
2023-05-04T07:09:20.603Z,56.92
2023-05-04T07:10:27.752Z,56.16
2023-05-04T07:11:20.190Z,56.40
2023-05-04T07:12:20.140Z,56.69
2023-05-04T07:13:21.538Z,56.34
2023-05-04T07:14:20.067Z,56.31
2023-05-04T07:15:20.006Z,56.45
2023-05-04T07:16:20.103Z,56.50
2023-05-04T07:17:19.902Z,56.51
2023-05-04T07:18:20.036Z,56.32
2023-05-04T07:19:19.812Z,56.32
2023-05-04T07:20:19.737Z,56.30
2023-05-04T07:21:27.622Z,56.34
2023-05-04T07:22:19.568Z,56.31
2023-05-04T07:23:19.552Z,56.34
2023-05-04T07:24:19.402Z,56.11
2023-05-04T07:25:19.318Z,55.84
2023-05-04T07:26:19.575Z,55.58
2023-05-04T07:27:19.218Z,55.05
2023-05-04T07:28:19.104Z,55.04
2023-05-04T07:29:19.032Z,55.16
2023-05-04T07:30:19.034Z,55.04
2023-05-04T07:31:18.938Z,54.53
2023-05-04T07:32:18.967Z,54.47
2023-05-04T07:33:18.867Z,53.94
2023-05-04T07:34:19.280Z,53.81
2023-05-04T07:35:19.723Z,53.70
2023-05-04T07:36:18.829Z,53.64
2023-05-04T07:37:19.106Z,53.34
2023-05-04T07:38:19.970Z,53.39
2023-05-04T07:39:18.807Z,53.83
2023-05-04T07:40:18.688Z,54.48
2023-05-04T07:41:18.640Z,54.59
2023-05-04T07:42:19.191Z,53.78
2023-05-04T07:43:18.710Z,53.56
2023-05-04T07:44:18.671Z,53.54
2023-05-04T07:45:18.415Z,53.72
2023-05-04T07:46:18.531Z,53.66
2023-05-04T07:47:18.589Z,53.23
2023-05-04T07:48:18.356Z,52.66
2023-05-04T07:49:50.433Z,52.31
2023-05-04T07:50:25.735Z,52.35
2023-05-04T07:51:18.143Z,52.23
2023-05-04T07:52:18.048Z,52.23
2023-05-04T07:53:18.118Z,52.08
2023-05-04T07:54:17.882Z,52.17
2023-05-04T07:55:17.830Z,52.18
2023-05-04T07:56:17.760Z,51.67
2023-05-04T07:57:17.661Z,51.38
2023-05-04T07:58:18.112Z,51.16
2023-05-04T07:59:17.512Z,51.18
2023-05-04T08:00:17.420Z,51.47
2023-05-04T08:01:17.321Z,51.11
2023-05-04T08:02:17.654Z,51.36
2023-05-04T08:03:17.636Z,51.66
2023-05-04T08:04:17.111Z,52.16
2023-05-04T08:05:16.948Z,52.21
2023-05-04T08:06:16.880Z,52.68
2023-05-04T08:07:16.971Z,52.89
2023-05-04T08:08:17.389Z,52.66
2023-05-04T08:09:16.627Z,52.78
2023-05-04T08:10:16.533Z,52.38
2023-05-04T08:11:20.482Z,51.63
2023-05-04T08:12:16.568Z,50.84
2023-05-04T08:13:16.917Z,50.36
2023-05-04T08:14:16.523Z,50.17
2023-05-04T08:15:16.415Z,49.77
2023-05-04T08:16:16.433Z,49.56
2023-05-04T08:17:16.598Z,49.34
2023-05-04T08:18:16.387Z,49.22
2023-05-04T08:19:16.351Z,49.31
2023-05-04T08:20:16.360Z,49.07
2023-05-04T08:21:16.350Z,48.95
2023-05-04T08:22:16.627Z,48.75
2023-05-04T08:23:16.541Z,48.21
2023-05-04T08:24:16.242Z,47.78
2023-05-04T08:25:17.239Z,47.95
2023-05-04T08:26:16.219Z,47.90
2023-05-04T08:27:17.615Z,48.53
2023-05-04T08:28:16.626Z,48.54
2023-05-04T08:29:16.233Z,48.49
2023-05-04T08:30:16.124Z,48.02
2023-05-04T08:31:16.165Z,47.77
2023-05-04T08:32:16.129Z,47.41
2023-05-04T08:33:16.104Z,46.98
2023-05-04T08:34:17.564Z,46.88
2023-05-04T08:35:23.255Z,47.10
2023-05-04T08:36:15.754Z,47.08
2023-05-04T08:37:47.457Z,47.03
2023-05-04T08:38:18.781Z,46.51
2023-05-04T08:39:15.572Z,46.46
2023-05-04T08:40:16.403Z,46.49
2023-05-04T08:41:15.240Z,46.49
2023-05-04T08:42:15.152Z,46.90
2023-05-04T08:43:15.058Z,47.12
2023-05-04T08:44:15.113Z,46.94
2023-05-04T08:45:15.049Z,46.52
2023-05-04T08:46:14.844Z,46.15
2023-05-04T08:47:14.646Z,45.71
2023-05-04T08:48:14.536Z,45.31
2023-05-04T08:49:14.601Z,44.70
2023-05-04T08:50:14.310Z,44.25
2023-05-04T08:51:15.223Z,44.53
2023-05-04T08:52:21.521Z,44.42
2023-05-04T08:53:14.139Z,44.05
2023-05-04T08:54:14.926Z,44.09
2023-05-04T08:55:13.854Z,43.96
2023-05-04T08:56:13.709Z,43.96
2023-05-04T08:57:13.597Z,44.04
2023-05-04T08:58:14.148Z,44.23
2023-05-04T08:59:13.583Z,44.25
2023-05-04T09:00:13.256Z,44.06
2023-05-04T09:01:13.262Z,44.04
2023-05-04T09:02:13.074Z,43.38
2023-05-04T09:03:12.958Z,43.41
2023-05-04T09:04:12.792Z,43.93
2023-05-04T09:05:13.122Z,44.17
2023-05-04T09:06:12.663Z,44.47
2023-05-04T09:07:12.455Z,43.31
2023-05-04T09:08:12.436Z,43.08
2023-05-04T09:09:12.335Z,44.51
2023-05-04T09:10:12.318Z,43.70
2023-05-04T09:11:12.577Z,42.73
2023-05-04T09:12:12.085Z,42.57
2023-05-04T09:13:12.148Z,42.57
2023-05-04T09:14:12.099Z,42.74
2023-05-04T09:15:12.427Z,42.73
2023-05-04T09:16:13.386Z,42.06
2023-05-04T09:17:11.749Z,42.16
2023-05-04T09:18:12.284Z,41.89
2023-05-04T09:19:11.526Z,40.88
2023-05-04T09:20:11.418Z,40.45
2023-05-04T09:21:12.210Z,40.10
2023-05-04T09:22:11.233Z,39.87
2023-05-04T09:23:11.134Z,39.98
2023-05-04T09:24:10.293Z,39.44
2023-05-04T09:25:10.918Z,39.42
2023-05-04T09:26:10.769Z,39.66
2023-05-04T09:27:10.684Z,39.99
2023-05-04T09:28:10.498Z,40.25
2023-05-04T09:29:13.871Z,40.08
2023-05-04T09:30:11.259Z,40.02
2023-05-04T09:31:10.196Z,40.22
2023-05-04T09:32:09.981Z,40.13
2023-05-04T09:33:09.907Z,39.98
2023-05-04T09:34:10.183Z,39.24
2023-05-04T09:35:12.179Z,39.38
2023-05-04T09:36:09.608Z,38.82
2023-05-04T09:37:09.527Z,38.93
2023-05-04T09:38:09.412Z,39.82
2023-05-04T09:39:11.296Z,39.82
2023-05-04T09:40:09.266Z,41.68
2023-05-04T09:41:09.079Z,41.02
2023-05-04T09:42:08.983Z,40.64
2023-05-04T09:43:08.888Z,40.65
2023-05-04T09:44:09.120Z,40.08
2023-05-04T09:45:08.768Z,39.71
2023-05-04T09:46:08.529Z,39.68
2023-05-04T09:47:08.520Z,40.82
2023-05-04T09:48:08.233Z,41.21
2023-05-04T09:49:08.604Z,41.41
2023-05-04T09:50:08.159Z,42.03
2023-05-04T09:51:07.897Z,41.44
2023-05-04T09:52:07.773Z,41.43
2023-05-04T09:53:07.677Z,41.60
2023-05-04T09:54:07.595Z,41.17
2023-05-04T09:55:07.424Z,41.33
2023-05-04T09:56:08.390Z,40.77
2023-05-04T09:57:07.205Z,40.85
2023-05-04T09:58:07.123Z,42.26
2023-05-04T09:59:06.939Z,41.87
2023-05-04T10:00:06.845Z,40.81
2023-05-04T10:01:06.747Z,41.23
2023-05-04T10:02:18.846Z,41.35
2023-05-04T10:03:06.870Z,41.58
2023-05-04T10:04:06.657Z,41.53
2023-05-04T10:05:06.655Z,42.51
2023-05-04T10:06:06.256Z,41.92
2023-05-04T10:07:06.103Z,42.33
2023-05-04T10:08:05.956Z,43.17
2023-05-04T10:09:06.092Z,42.87
2023-05-04T10:10:05.747Z,44.77
2023-05-04T10:11:05.621Z,43.07
2023-05-04T10:12:06.439Z,43.39
2023-05-04T10:13:06.494Z,43.54
2023-05-04T10:14:07.654Z,44.12
2023-05-04T10:15:05.839Z,43.17
2023-05-04T10:16:05.556Z,43.28
2023-05-04T10:17:05.403Z,43.05
2023-05-04T10:18:05.315Z,42.11
2023-05-04T10:19:08.842Z,42.19
2023-05-04T10:20:05.049Z,42.05
2023-05-04T10:21:04.934Z,41.95
2023-05-04T10:22:04.830Z,42.16
2023-05-04T10:23:05.096Z,41.86
2023-05-04T10:24:05.107Z,42.33
2023-05-04T10:25:04.799Z,42.55
2023-05-04T10:26:05.165Z,41.04
2023-05-04T10:27:04.217Z,42.43
2023-05-04T10:28:04.596Z,41.19
2023-05-04T10:29:04.600Z,41.60
2023-05-04T10:30:03.863Z,42.33
2023-05-04T10:31:03.758Z,40.43
2023-05-04T10:32:03.763Z,40.90
2023-05-04T10:33:03.570Z,40.57
2023-05-04T10:34:03.449Z,40.69
2023-05-04T10:35:03.584Z,40.28
2023-05-04T10:36:03.211Z,40.86
2023-05-04T10:37:03.636Z,41.05
2023-05-04T10:38:03.167Z,41.13
2023-05-04T10:39:03.113Z,40.01
2023-05-04T10:40:02.882Z,39.73
2023-05-04T10:41:02.773Z,40.65
2023-05-04T10:42:02.717Z,39.62
2023-05-04T10:43:03.283Z,39.53
2023-05-04T10:44:03.137Z,39.96
2023-05-04T10:45:02.690Z,39.38
2023-05-04T10:46:02.566Z,40.66
2023-05-04T10:47:02.427Z,40.14
2023-05-04T10:48:02.459Z,40.93
2023-05-04T10:49:02.645Z,40.19
2023-05-04T10:50:02.607Z,40.27
2023-05-04T10:51:02.171Z,40.87
2023-05-04T10:52:02.015Z,39.95
2023-05-04T10:53:01.945Z,39.39
2023-05-04T10:54:01.976Z,41.09
2023-05-04T10:55:02.322Z,41.22
2023-05-04T10:56:01.698Z,39.12
2023-05-04T10:57:01.662Z,39.91
2023-05-04T10:58:01.632Z,39.23
2023-05-04T10:59:01.563Z,39.63
2023-05-04T11:00:01.642Z,39.69
2023-05-04T11:01:01.534Z,38.99
2023-05-04T11:02:01.603Z,39.75
2023-05-04T11:03:01.710Z,40.28
2023-05-04T11:04:01.253Z,39.90
2023-05-04T11:05:01.199Z,39.48
2023-05-04T11:06:01.076Z,38.48
2023-05-04T11:07:01.053Z,38.45
2023-05-04T11:08:01.113Z,38.62
2023-05-04T11:09:01.162Z,39.24
2023-05-04T11:10:00.857Z,38.57
2023-05-04T11:11:00.783Z,38.96
2023-05-04T11:12:00.728Z,40.32
2023-05-04T11:13:00.840Z,39.97
2023-05-04T11:14:00.621Z,39.63
2023-05-04T11:15:00.498Z,40.96
2023-05-04T11:16:00.609Z,39.01
2023-05-04T11:17:00.349Z,38.78
2023-05-04T11:18:00.309Z,38.35
2023-05-04T11:19:00.624Z,38.77
2023-05-04T11:20:00.191Z,38.25
2023-05-04T11:21:00.147Z,38.68
2023-05-04T11:22:00.114Z,39.70
2023-05-04T11:23:00.053Z,39.78
2023-05-04T11:24:00.160Z,38.67
2023-05-04T11:24:59.997Z,37.81
2023-05-04T11:26:00.161Z,38.58
2023-05-04T11:27:00.145Z,37.85
2023-05-04T11:27:59.932Z,38.09
2023-05-04T11:28:59.882Z,37.66
2023-05-04T11:29:59.843Z,38.23
2023-05-04T11:30:59.823Z,37.68
2023-05-04T11:31:59.788Z,37.43
2023-05-04T11:32:59.770Z,39.47
2023-05-04T11:33:59.665Z,38.39
2023-05-04T11:34:59.609Z,37.39
2023-05-04T11:35:59.536Z,37.83
2023-05-04T11:36:59.447Z,37.59
2023-05-04T11:37:59.389Z,37.30
2023-05-04T11:38:59.624Z,35.59
2023-05-04T11:39:59.229Z,36.71
2023-05-04T11:40:59.189Z,36.47
2023-05-04T11:41:59.148Z,37.78
2023-05-04T11:42:59.075Z,38.08
2023-05-04T11:43:58.966Z,38.92
2023-05-04T11:45:00.402Z,35.78
2023-05-04T11:45:59.006Z,37.49
2023-05-04T11:46:58.888Z,38.80
2023-05-04T11:47:58.903Z,38.71
2023-05-04T11:48:59.878Z,40.86
2023-05-04T11:49:58.690Z,39.10
2023-05-04T11:50:58.640Z,39.12
2023-05-04T11:51:58.909Z,38.31
2023-05-04T11:52:58.575Z,39.74
2023-05-04T11:53:58.501Z,37.70
2023-05-04T11:54:58.452Z,38.40
2023-05-04T11:55:58.385Z,39.47
2023-05-04T11:56:58.278Z,40.61
2023-05-04T11:57:58.281Z,40.71
2023-05-04T11:58:58.216Z,38.96
2023-05-04T11:59:58.135Z,38.79
2023-05-04T12:00:58.101Z,38.15
2023-05-04T12:01:57.995Z,37.18
2023-05-04T12:02:58.120Z,36.60
2023-05-04T12:03:57.998Z,37.35
2023-05-04T12:04:57.910Z,35.97
2023-05-04T12:05:58.031Z,38.68
2023-05-04T12:06:59.023Z,36.86
2023-05-04T12:07:57.711Z,37.72
2023-05-04T12:08:57.670Z,36.32
2023-05-04T12:09:57.654Z,35.55
2023-05-04T12:10:57.657Z,36.55
2023-05-04T12:11:57.221Z,38.29
2023-05-04T12:12:57.132Z,36.81
2023-05-04T12:13:57.034Z,40.06
2023-05-04T12:14:57.128Z,37.91
2023-05-04T12:15:56.739Z,34.92
2023-05-04T12:16:56.576Z,34.36
2023-05-04T12:17:56.501Z,34.66
2023-05-04T12:18:56.295Z,33.36
2023-05-04T12:19:56.196Z,33.16
2023-05-04T12:20:56.043Z,32.76
2023-05-04T12:21:55.921Z,35.25
2023-05-04T12:22:55.774Z,36.15
2023-05-04T12:23:56.134Z,35.41
2023-05-04T12:24:55.553Z,35.27
2023-05-04T12:25:58.353Z,32.47
2023-05-04T12:26:55.271Z,32.26
2023-05-04T12:27:55.125Z,36.31
2023-05-04T12:28:55.013Z,37.33
2023-05-04T12:29:56.149Z,34.89
2023-05-04T12:30:54.850Z,34.62
2023-05-04T12:31:54.836Z,35.56
2023-05-04T12:32:54.741Z,31.34
2023-05-04T12:33:54.603Z,30.59
2023-05-04T12:34:54.516Z,31.77
2023-05-04T12:35:54.436Z,28.77
2023-05-04T12:36:54.356Z,30.17
2023-05-04T12:37:54.320Z,29.81
2023-05-04T12:38:54.255Z,32.09
2023-05-04T12:39:54.701Z,31.60
2023-05-04T12:40:54.076Z,33.63
2023-05-04T12:41:53.976Z,33.32
2023-05-04T12:42:53.883Z,31.55
2023-05-04T12:43:53.893Z,31.23
2023-05-04T12:44:54.156Z,31.93
2023-05-04T12:45:53.771Z,33.77
2023-05-04T12:46:53.553Z,33.35
2023-05-04T12:47:53.574Z,36.11
2023-05-04T12:48:53.384Z,34.48
2023-05-04T12:49:53.341Z,34.94
2023-05-04T12:50:53.226Z,34.88
2023-05-04T12:51:53.120Z,34.16
2023-05-04T12:52:53.153Z,34.28
2023-05-04T12:53:52.936Z,33.00
2023-05-04T12:54:52.877Z,33.87
2023-05-04T12:55:52.749Z,35.18